createdAt,value
2023-02-25T00:01:37.864Z,99.90
2023-02-25T00:04:04.514Z,99.90
2023-02-25T00:06:31.296Z,99.90
2023-02-25T00:08:57.953Z,99.90
2023-02-25T00:11:26.012Z,99.90
2023-02-25T00:13:52.983Z,99.90
2023-02-25T00:16:22.194Z,99.90
2023-02-25T00:18:56.522Z,99.90
2023-02-25T00:21:23.759Z,99.90
2023-02-25T00:23:51.522Z,99.90
2023-02-25T00:26:18.365Z,99.90
2023-02-25T00:28:46.154Z,99.90
2023-02-25T00:31:17.627Z,99.90
2023-02-25T00:33:44.736Z,99.90
2023-02-25T00:36:24.369Z,99.90
2023-02-25T00:38:53.110Z,99.90
2023-02-25T00:41:22.213Z,99.90
2023-02-25T00:43:51.481Z,99.90
2023-02-25T00:46:18.934Z,99.90
2023-02-25T00:48:46.082Z,99.90
2023-02-25T00:51:15.512Z,99.90
2023-02-25T00:53:44.185Z,99.90
2023-02-25T00:56:15.998Z,99.90
2023-02-25T00:58:47.602Z,99.90
2023-02-25T01:01:26.934Z,99.90
2023-02-25T01:03:56.474Z,99.90
2023-02-25T01:06:25.101Z,99.90
2023-02-25T01:08:52.125Z,99.90
2023-02-25T01:11:29.727Z,99.90
2023-02-25T01:13:58.820Z,99.90
2023-02-25T01:16:28.165Z,99.90
2023-02-25T01:18:57.427Z,99.90
2023-02-25T01:21:28.002Z,99.90
2023-02-25T01:23:58.571Z,99.90
2023-02-25T01:26:27.389Z,99.90
2023-02-25T01:28:55.703Z,99.90
2023-02-25T01:31:24.918Z,99.90
2023-02-25T01:33:51.743Z,99.90
2023-02-25T01:36:18.912Z,99.90
2023-02-25T01:38:45.602Z,99.90
2023-02-25T01:41:12.699Z,99.90
2023-02-25T01:43:40.631Z,99.90
2023-02-25T01:46:07.399Z,99.90
2023-02-25T01:48:37.510Z,99.90
2023-02-25T01:51:09.969Z,99.90
2023-02-25T01:53:46.599Z,99.90
2023-02-25T01:56:17.286Z,99.90
2023-02-25T01:58:44.670Z,99.90
2023-02-25T02:01:15.819Z,99.90
2023-02-25T02:03:43.900Z,99.90
2023-02-25T02:06:17.690Z,99.90
2023-02-25T02:08:45.613Z,99.90
2023-02-25T02:11:12.337Z,99.90
2023-02-25T02:13:43.089Z,99.90
2023-02-25T02:16:40.203Z,99.90
2023-02-25T02:19:15.060Z,99.90
2023-02-25T02:22:00.566Z,99.90
2023-02-25T02:24:52.576Z,99.90
2023-02-25T02:27:39.417Z,99.90
2023-02-25T02:30:28.934Z,99.90
2023-02-25T02:33:26.288Z,99.90
2023-02-25T02:36:07.152Z,99.90
2023-02-25T02:38:56.689Z,99.90
2023-02-25T02:41:41.590Z,99.90
2023-02-25T02:44:12.822Z,99.90
2023-02-25T02:46:55.052Z,99.90
2023-02-25T02:49:29.808Z,99.90
2023-02-25T02:52:19.342Z,99.90
2023-02-25T02:54:53.204Z,99.90
2023-02-25T02:57:22.312Z,99.90
2023-02-25T03:00:12.380Z,99.90
2023-02-25T03:02:43.108Z,99.90
2023-02-25T03:05:16.632Z,99.90
2023-02-25T03:07:51.479Z,99.90
2023-02-25T03:10:21.218Z,99.90
2023-02-25T03:12:48.449Z,99.90
2023-02-25T03:15:15.703Z,99.90
2023-02-25T03:17:51.285Z,99.90
2023-02-25T03:20:34.662Z,99.90
2023-02-25T03:23:07.345Z,99.90
2023-02-25T03:25:47.593Z,99.90
2023-02-25T03:28:29.744Z,99.90
2023-02-25T03:31:09.713Z,99.90
2023-02-25T03:33:57.949Z,99.90
2023-02-25T03:36:38.743Z,99.90
2023-02-25T03:39:11.143Z,99.90
2023-02-25T03:41:44.621Z,99.90
2023-02-25T03:44:16.773Z,99.90
2023-02-25T03:46:47.071Z,99.90
2023-02-25T03:49:25.542Z,99.90
2023-02-25T03:51:55.395Z,99.90
2023-02-25T03:54:22.282Z,99.90
2023-02-25T03:56:51.932Z,99.90
2023-02-25T03:59:20.166Z,99.90
2023-02-25T04:01:49.894Z,99.90
2023-02-25T04:04:16.562Z,99.90
2023-02-25T04:06:43.226Z,99.90
2023-02-25T04:09:09.907Z,99.90
2023-02-25T04:11:36.618Z,99.90
2023-02-25T04:14:03.288Z,99.90
2023-02-25T04:16:30.133Z,99.90
2023-02-25T04:18:59.153Z,99.90
2023-02-25T04:21:44.102Z,99.90
2023-02-25T04:24:10.877Z,99.90
2023-02-25T04:26:37.647Z,99.90
2023-02-25T04:29:04.359Z,99.90
2023-02-25T04:31:31.168Z,99.90
2023-02-25T04:33:58.184Z,99.90
2023-02-25T04:36:29.152Z,99.90
2023-02-25T04:38:56.740Z,99.90
2023-02-25T04:41:24.113Z,99.90
2023-02-25T04:43:50.999Z,99.90
2023-02-25T04:46:17.734Z,99.90
2023-02-25T04:48:44.782Z,99.90
2023-02-25T04:51:11.448Z,99.90
2023-02-25T04:53:38.126Z,99.90
2023-02-25T04:56:06.857Z,99.90
2023-02-25T04:58:35.114Z,99.90
2023-02-25T05:01:03.435Z,99.90
2023-02-25T05:03:30.376Z,99.90
2023-02-25T05:05:57.310Z,99.90
2023-02-25T05:08:24.462Z,99.90
2023-02-25T05:10:51.471Z,99.90
2023-02-25T05:13:19.526Z,99.90
2023-02-25T05:15:46.570Z,99.90
2023-02-25T05:18:13.486Z,99.90
2023-02-25T05:20:42.073Z,99.90
2023-02-25T05:23:09.572Z,99.90
2023-02-25T05:25:41.155Z,99.90
2023-02-25T05:28:09.199Z,99.90
2023-02-25T05:30:38.724Z,99.90
2023-02-25T05:33:06.524Z,99.90
2023-02-25T05:35:33.600Z,99.90
2023-02-25T05:38:00.675Z,99.90
2023-02-25T05:40:27.751Z,99.90
2023-02-25T05:42:54.452Z,99.90
2023-02-25T05:45:21.312Z,99.90
2023-02-25T05:47:48.001Z,99.90
2023-02-25T05:50:14.734Z,99.90
2023-02-25T05:52:41.964Z,99.90
2023-02-25T05:55:09.385Z,99.90
2023-02-25T05:57:36.101Z,99.90
2023-02-25T06:00:05.773Z,99.90
2023-02-25T06:02:39.099Z,99.90
2023-02-25T06:05:06.544Z,99.90
2023-02-25T06:07:33.565Z,99.90
2023-02-25T06:10:00.880Z,99.90
2023-02-25T06:12:33.273Z,99.90
2023-02-25T06:15:00.606Z,99.90
2023-02-25T06:17:27.365Z,99.90
2023-02-25T06:19:54.421Z,99.90
2023-02-25T06:22:22.400Z,99.90
2023-02-25T06:24:49.149Z,99.90
2023-02-25T06:27:16.387Z,99.90
2023-02-25T06:29:43.060Z,99.90
2023-02-25T06:32:11.414Z,99.90
2023-02-25T06:34:38.893Z,99.90
2023-02-25T06:37:06.272Z,99.90
2023-02-25T06:39:33.280Z,99.90
2023-02-25T06:42:00.263Z,99.90
2023-02-25T06:44:29.023Z,99.90
2023-02-25T06:46:56.015Z,99.90
2023-02-25T06:49:23.526Z,99.90
2023-02-25T06:51:50.400Z,99.90
2023-02-25T06:54:18.100Z,99.90
2023-02-25T06:56:45.245Z,99.90
2023-02-25T06:59:11.985Z,99.90
2023-02-25T07:01:39.216Z,99.90
2023-02-25T07:04:05.966Z,99.90
2023-02-25T07:06:32.765Z,99.90
2023-02-25T07:08:59.419Z,99.90
2023-02-25T07:11:26.894Z,99.90
2023-02-25T07:13:53.526Z,99.90
2023-02-25T07:16:20.875Z,99.90
2023-02-25T07:18:48.373Z,99.90
2023-02-25T07:21:16.067Z,99.90
2023-02-25T07:23:43.521Z,99.90
2023-02-25T07:26:13.112Z,99.90
2023-02-25T07:28:39.881Z,99.90
2023-02-25T07:31:18.697Z,99.90
2023-02-25T07:33:46.760Z,99.90
2023-02-25T07:36:13.979Z,99.90
2023-02-25T07:38:40.757Z,99.90
2023-02-25T07:41:09.343Z,99.90
2023-02-25T07:43:36.483Z,99.90
2023-02-25T07:46:03.507Z,99.90
2023-02-25T07:48:30.218Z,99.90
2023-02-25T07:51:03.623Z,99.90
2023-02-25T07:53:30.350Z,99.90
2023-02-25T07:55:56.998Z,99.90
2023-02-25T07:58:24.091Z,99.90
2023-02-25T08:00:50.731Z,99.90
2023-02-25T08:03:17.388Z,99.90
2023-02-25T08:05:44.041Z,99.90
2023-02-25T08:08:10.773Z,99.90
2023-02-25T08:10:37.525Z,99.90
2023-02-25T08:13:04.164Z,99.90
2023-02-25T08:15:30.798Z,99.90
2023-02-25T08:17:57.482Z,99.90
2023-02-25T08:20:24.309Z,99.90
2023-02-25T08:22:51.657Z,99.90
2023-02-25T08:25:18.406Z,99.90
2023-02-25T08:27:45.113Z,99.90
2023-02-25T08:30:12.595Z,99.90
2023-02-25T08:32:39.591Z,99.90
2023-02-25T08:35:06.573Z,99.90
2023-02-25T08:37:33.492Z,99.90
2023-02-25T08:40:00.207Z,99.90
2023-02-25T08:42:27.189Z,99.90
2023-02-25T08:44:53.812Z,99.90
2023-02-25T08:47:20.532Z,99.90
2023-02-25T08:49:47.559Z,99.90
2023-02-25T08:52:14.550Z,99.90
2023-02-25T08:54:41.421Z,99.90
2023-02-25T08:57:08.308Z,99.90
2023-02-25T08:59:37.709Z,99.90
2023-02-25T09:02:08.646Z,99.90
2023-02-25T09:04:35.477Z,99.90
2023-02-25T09:07:03.095Z,99.90
2023-02-25T09:09:29.954Z,99.90
2023-02-25T09:11:56.697Z,99.90
2023-02-25T09:14:23.421Z,99.90
2023-02-25T09:16:50.676Z,99.90
2023-02-25T09:19:18.308Z,99.90
2023-02-25T09:21:48.022Z,99.90
2023-02-25T09:24:15.169Z,99.90
2023-02-25T09:26:42.137Z,99.90
2023-02-25T09:29:08.837Z,99.90
2023-02-25T09:31:37.425Z,99.90
2023-02-25T09:34:07.350Z,99.90
2023-02-25T09:36:34.768Z,99.90
2023-02-25T09:39:02.414Z,99.90
2023-02-25T09:41:29.058Z,99.90
2023-02-25T09:44:05.715Z,99.90
2023-02-25T09:46:35.138Z,99.90
2023-02-25T09:49:23.395Z,99.90
2023-02-25T09:51:58.292Z,99.90
2023-02-25T09:54:34.509Z,99.90
2023-02-25T09:57:03.003Z,99.90
2023-02-25T09:59:30.598Z,99.90
2023-02-25T10:02:20.202Z,99.90
2023-02-25T10:05:11.849Z,99.90
2023-02-25T10:08:12.130Z,99.90
2023-02-25T10:10:47.183Z,99.90
2023-02-25T10:13:36.705Z,99.90
2023-02-25T10:16:31.043Z,99.90
2023-02-25T10:19:01.484Z,99.90
2023-02-25T10:21:54.818Z,99.90
2023-02-25T10:24:21.451Z,99.90
2023-02-25T10:26:55.925Z,99.90
2023-02-25T10:29:36.504Z,99.90
2023-02-25T10:32:17.239Z,99.90
2023-02-25T10:34:44.123Z,99.90
2023-02-25T10:37:26.956Z,99.90
2023-02-25T10:39:57.554Z,99.90
2023-02-25T10:42:24.338Z,99.90
2023-02-25T10:44:51.259Z,99.90
2023-02-25T10:47:39.919Z,99.90
2023-02-25T10:50:42.904Z,99.90
2023-02-25T10:53:18.661Z,99.90
2023-02-25T10:55:51.561Z,99.90
2023-02-25T10:58:44.207Z,99.90
2023-02-25T11:01:22.412Z,99.90
2023-02-25T11:03:59.696Z,99.90
2023-02-25T11:06:29.964Z,99.90
2023-02-25T11:08:59.248Z,99.90
2023-02-25T11:11:31.010Z,99.90
2023-02-25T11:14:14.878Z,99.90
2023-02-25T11:16:44.577Z,99.90
2023-02-25T11:19:22.730Z,99.90
2023-02-25T11:21:50.294Z,99.90
2023-02-25T11:24:33.330Z,99.90
2023-02-25T11:27:02.095Z,99.90
2023-02-25T11:29:38.210Z,99.90
2023-02-25T11:32:18.580Z,99.90
2023-02-25T11:34:50.356Z,99.90
2023-02-25T11:37:45.608Z,99.90
2023-02-25T11:40:34.059Z,99.90
2023-02-25T11:43:07.085Z,99.90
2023-02-25T11:45:37.697Z,99.90
2023-02-25T11:48:16.569Z,99.90
2023-02-25T11:50:59.953Z,99.90
2023-02-25T11:53:52.049Z,99.90
2023-02-25T11:56:30.870Z,99.90
2023-02-25T11:59:30.266Z,99.90
2023-02-25T12:02:14.849Z,99.90
2023-02-25T12:05:03.197Z,99.90
2023-02-25T12:08:12.049Z,99.90
2023-02-25T12:10:48.736Z,99.90
2023-02-25T12:13:34.415Z,99.90
2023-02-25T12:16:43.931Z,99.90
2023-02-25T12:19:44.766Z,99.90
2023-02-25T12:22:29.919Z,99.90
2023-02-25T12:25:13.909Z,99.90
2023-02-25T12:28:01.891Z,99.90
2023-02-25T12:30:47.382Z,99.90
2023-02-25T12:33:23.319Z,99.90
2023-02-25T12:36:09.141Z,99.90
2023-02-25T12:39:09.636Z,99.90
2023-02-25T12:42:07.708Z,99.90
2023-02-25T12:44:59.782Z,99.90
2023-02-25T12:47:59.982Z,99.90
2023-02-25T12:50:34.483Z,99.90
2023-02-25T12:53:26.335Z,99.90
2023-02-25T12:56:05.407Z,99.90
2023-02-25T12:58:33.475Z,99.90
2023-02-25T13:01:12.864Z,99.90
2023-02-25T13:03:53.400Z,99.90
2023-02-25T13:06:33.582Z,99.90
2023-02-25T13:09:15.616Z,97.40
2023-02-25T13:12:10.512Z,96.70
2023-02-25T13:14:56.198Z,97.00
2023-02-25T13:17:54.901Z,95.90
2023-02-25T13:20:42.737Z,97.90
2023-02-25T13:23:35.712Z,97.10
2023-02-25T13:26:27.378Z,97.70
2023-02-25T13:29:26.315Z,98.40
2023-02-25T13:32:27.155Z,98.10
2023-02-25T13:35:19.159Z,99.30
2023-02-25T13:38:02.021Z,98.40
2023-02-25T13:41:07.111Z,98.30
2023-02-25T13:43:59.286Z,98.90
2023-02-25T13:46:44.046Z,98.40
2023-02-25T13:49:35.569Z,93.70
2023-02-25T13:52:17.351Z,92.00
2023-02-25T13:55:05.748Z,89.20
2023-02-25T13:57:41.852Z,87.40
2023-02-25T14:00:30.449Z,87.00
2023-02-25T14:03:31.150Z,87.40
2023-02-25T14:06:16.249Z,86.20
2023-02-25T14:09:06.751Z,86.60
2023-02-25T14:11:57.795Z,84.60
2023-02-25T14:14:50.194Z,82.80
2023-02-25T14:17:32.160Z,82.50
2023-02-25T14:20:18.435Z,83.00
2023-02-25T14:23:04.248Z,83.10
2023-02-25T14:25:48.318Z,83.20
2023-02-25T14:28:41.853Z,84.40
2023-02-25T14:31:17.821Z,83.30
2023-02-25T14:34:26.164Z,84.60
2023-02-25T14:37:20.630Z,83.90
2023-02-25T14:40:21.683Z,84.60
2023-02-25T14:43:12.097Z,82.70
2023-02-25T14:45:41.856Z,83.10
2023-02-25T14:48:27.782Z,83.00
2023-02-25T14:51:07.620Z,82.10
2023-02-25T14:53:46.389Z,79.30
2023-02-25T14:56:25.926Z,79.50
2023-02-25T14:59:11.206Z,79.30
2023-02-25T15:01:54.183Z,78.20
2023-02-25T15:04:55.433Z,78.80
2023-02-25T15:08:01.303Z,78.10
2023-02-25T15:10:59.866Z,77.10
2023-02-25T15:14:04.076Z,76.60
2023-02-25T15:16:43.250Z,77.30
2023-02-25T15:19:28.660Z,76.40
2023-02-25T15:22:13.670Z,74.30
2023-02-25T15:24:41.755Z,72.70
2023-02-25T15:27:36.208Z,72.30
2023-02-25T15:30:11.147Z,73.10
2023-02-25T15:32:53.029Z,74.20
2023-02-25T15:35:43.118Z,74.60
2023-02-25T15:38:20.269Z,74.20
2023-02-25T15:40:49.140Z,74.50
2023-02-25T15:43:16.414Z,73.10
2023-02-25T15:45:47.947Z,72.70
2023-02-25T15:48:17.074Z,72.80
2023-02-25T15:50:43.683Z,70.10
2023-02-25T15:53:25.522Z,70.00
2023-02-25T15:55:53.108Z,71.20
2023-02-25T15:58:25.781Z,70.50
2023-02-25T16:00:56.532Z,71.00
2023-02-25T16:03:32.766Z,72.10
2023-02-25T16:06:21.904Z,71.50
2023-02-25T16:09:00.888Z,71.90
2023-02-25T16:11:44.482Z,72.50
2023-02-25T16:14:30.678Z,73.00
2023-02-25T16:17:16.684Z,73.50
2023-02-25T16:19:46.728Z,74.00
2023-02-25T16:22:21.671Z,74.20
2023-02-25T16:24:56.853Z,75.00
2023-02-25T16:27:43.242Z,75.30
2023-02-25T16:30:22.537Z,75.40
2023-02-25T16:33:01.810Z,75.40
2023-02-25T16:35:36.478Z,74.60
2023-02-25T16:38:45.440Z,75.30
2023-02-25T16:41:13.354Z,76.10
2023-02-25T16:43:42.765Z,76.10
2023-02-25T16:46:20.826Z,76.30
2023-02-25T16:48:55.565Z,76.20
2023-02-25T16:51:26.874Z,75.50
2023-02-25T16:53:57.839Z,76.20
2023-02-25T16:56:30.417Z,76.90
2023-02-25T16:59:05.720Z,76.70
2023-02-25T17:01:35.183Z,76.40
2023-02-25T17:04:16.005Z,76.30
2023-02-25T17:06:43.206Z,76.20
2023-02-25T17:09:23.359Z,76.10
2023-02-25T17:11:55.445Z,75.60
2023-02-25T17:14:23.565Z,74.80
2023-02-25T17:16:50.953Z,76.00
2023-02-25T17:19:23.034Z,76.40
2023-02-25T17:21:58.575Z,76.80
2023-02-25T17:24:30.953Z,75.60
2023-02-25T17:26:58.401Z,75.90
2023-02-25T17:29:35.005Z,76.70
2023-02-25T17:32:23.118Z,75.90
2023-02-25T17:34:53.175Z,75.60
2023-02-25T17:37:21.610Z,76.00
2023-02-25T17:39:49.282Z,76.50
2023-02-25T17:42:32.747Z,77.00
2023-02-25T17:45:00.967Z,76.90
2023-02-25T17:47:30.957Z,77.00
2023-02-25T17:49:59.781Z,77.30
2023-02-25T17:52:31.070Z,77.10
2023-02-25T17:55:05.220Z,77.30
2023-02-25T17:57:33.859Z,77.00
2023-02-25T18:00:13.970Z,77.20
2023-02-25T18:02:44.014Z,77.70
2023-02-25T18:05:13.732Z,78.90
2023-02-25T18:08:04.727Z,78.30
2023-02-25T18:10:31.626Z,78.50
2023-02-25T18:13:01.702Z,78.50
2023-02-25T18:15:31.407Z,78.70
2023-02-25T18:18:01.386Z,78.00
2023-02-25T18:20:35.214Z,78.50
2023-02-25T18:23:30.934Z,78.30
2023-02-25T18:26:18.516Z,79.10
2023-02-25T18:28:45.992Z,79.70
2023-02-25T18:31:19.145Z,80.00
2023-02-25T18:33:47.551Z,80.00
2023-02-25T18:36:33.334Z,80.90
2023-02-25T18:39:04.330Z,81.30
2023-02-25T18:41:30.998Z,81.30
2023-02-25T18:43:57.636Z,81.70
2023-02-25T18:46:24.660Z,81.80
2023-02-25T18:48:51.569Z,81.60
2023-02-25T18:51:18.305Z,81.80
2023-02-25T18:53:44.967Z,81.90
2023-02-25T18:56:17.732Z,81.90
2023-02-25T18:58:45.270Z,82.40
2023-02-25T19:01:26.397Z,82.40
2023-02-25T19:03:59.119Z,82.30
2023-02-25T19:06:29.129Z,82.30
2023-02-25T19:08:55.942Z,83.00
2023-02-25T19:11:25.933Z,82.70
2023-02-25T19:13:53.262Z,83.20
2023-02-25T19:16:20.442Z,82.90
2023-02-25T19:18:47.305Z,83.30
2023-02-25T19:21:17.640Z,94.00
2023-02-25T19:23:45.243Z,85.40
2023-02-25T19:26:13.057Z,81.40
2023-02-25T19:28:40.539Z,81.40
2023-02-25T19:31:08.932Z,82.40
2023-02-25T19:33:36.072Z,84.10
2023-02-25T19:36:04.051Z,83.70
2023-02-25T19:38:30.830Z,83.90
2023-02-25T19:41:02.444Z,84.70
2023-02-25T19:43:30.589Z,85.00
2023-02-25T19:45:57.314Z,85.30
2023-02-25T19:48:24.722Z,85.90
2023-02-25T19:50:51.794Z,86.00
2023-02-25T19:53:19.051Z,86.40
2023-02-25T19:55:45.760Z,86.50
2023-02-25T19:58:12.398Z,86.80
2023-02-25T20:00:45.511Z,86.80
2023-02-25T20:03:13.352Z,86.70
2023-02-25T20:05:40.320Z,87.00
2023-02-25T20:08:07.342Z,87.10
2023-02-25T20:10:34.061Z,87.60
2023-02-25T20:13:00.726Z,87.50
2023-02-25T20:15:27.524Z,87.60
2023-02-25T20:17:55.578Z,87.90
2023-02-25T20:20:23.727Z,88.40
2023-02-25T20:22:50.474Z,88.50
2023-02-25T20:25:17.212Z,89.20
2023-02-25T20:27:43.928Z,88.70
2023-02-25T20:30:14.381Z,88.40
2023-02-25T20:32:42.734Z,88.80
2023-02-25T20:35:16.660Z,89.00
2023-02-25T20:37:51.462Z,89.30
2023-02-25T20:40:18.964Z,88.90
2023-02-25T20:42:45.777Z,89.10
2023-02-25T20:45:15.658Z,89.80
2023-02-25T20:47:43.124Z,89.70
2023-02-25T20:50:10.388Z,90.10
2023-02-25T20:52:37.133Z,90.70
2023-02-25T20:55:05.962Z,91.40
2023-02-25T20:57:33.850Z,91.80
2023-02-25T21:00:00.503Z,92.30
2023-02-25T21:02:27.272Z,92.40
2023-02-25T21:04:53.912Z,93.40
2023-02-25T21:07:20.587Z,93.70
2023-02-25T21:09:47.308Z,93.70
2023-02-25T21:12:14.178Z,93.60
2023-02-25T21:14:40.876Z,94.10
2023-02-25T21:17:09.465Z,94.80
2023-02-25T21:19:38.426Z,95.00
2023-02-25T21:22:06.383Z,94.80
2023-02-25T21:24:33.591Z,95.00
2023-02-25T21:27:01.329Z,95.30
2023-02-25T21:29:28.124Z,95.40
2023-02-25T21:31:54.848Z,95.80
2023-02-25T21:34:21.513Z,95.90
2023-02-25T21:36:48.308Z,96.10
2023-02-25T21:39:15.082Z,96.30
2023-02-25T21:41:44.063Z,96.50
2023-02-25T21:44:12.162Z,96.70
2023-02-25T21:46:39.008Z,96.80
2023-02-25T21:49:05.738Z,96.80
2023-02-25T21:51:32.511Z,97.30
2023-02-25T21:54:00.895Z,97.00
2023-02-25T21:56:29.134Z,98.30
2023-02-25T21:58:57.773Z,99.30
2023-02-25T22:01:33.456Z,99.10
2023-02-25T22:04:00.362Z,99.00
2023-02-25T22:06:28.280Z,99.00
2023-02-25T22:08:55.910Z,99.10
2023-02-25T22:11:26.861Z,99.10
2023-02-25T22:13:53.938Z,98.80
2023-02-25T22:16:23.053Z,98.90
2023-02-25T22:18:51.275Z,99.30
2023-02-25T22:21:21.219Z,99.20
2023-02-25T22:23:49.402Z,99.40
2023-02-25T22:26:19.244Z,99.80
2023-02-25T22:28:46.450Z,99.90
2023-02-25T22:31:16.084Z,99.90
2023-02-25T22:33:43.654Z,99.90
2023-02-25T22:36:11.835Z,99.90
2023-02-25T22:38:40.864Z,99.00
2023-02-25T22:41:20.539Z,98.10
2023-02-25T22:43:48.300Z,98.10
2023-02-25T22:46:20.958Z,97.20
2023-02-25T22:48:49.304Z,97.10
2023-02-25T22:51:26.594Z,96.90
2023-02-25T22:53:53.728Z,97.00
2023-02-25T22:56:21.606Z,96.80
2023-02-25T22:58:48.847Z,96.80
2023-02-25T23:01:19.134Z,96.60
2023-02-25T23:03:46.393Z,97.00
2023-02-25T23:06:15.813Z,97.30
2023-02-25T23:08:43.477Z,97.60
2023-02-25T23:11:19.067Z,97.30
2023-02-25T23:13:48.164Z,97.40
2023-02-25T23:16:16.870Z,97.50
2023-02-25T23:18:44.031Z,97.50
2023-02-25T23:21:16.151Z,97.50
2023-02-25T23:23:43.771Z,97.60
2023-02-25T23:26:13.743Z,97.70
2023-02-25T23:28:41.042Z,97.80
2023-02-25T23:31:08.277Z,98.00
2023-02-25T23:33:34.987Z,98.10
2023-02-25T23:36:05.267Z,98.40
2023-02-25T23:38:31.940Z,98.30
2023-02-25T23:40:59.654Z,98.30
2023-02-25T23:43:26.483Z,98.40
2023-02-25T23:45:53.110Z,98.80
2023-02-25T23:48:19.805Z,98.60
2023-02-25T23:50:46.560Z,98.60
2023-02-25T23:53:13.380Z,98.70
2023-02-25T23:55:40.320Z,98.70
2023-02-25T23:58:07.030Z,98.90
